createdAt,value
2023-03-11T00:00:02.454Z,85.45
2023-03-11T00:02:31.940Z,85.43
2023-03-11T00:05:02.467Z,85.56
2023-03-11T00:07:29.053Z,85.85
2023-03-11T00:09:55.493Z,86.08
2023-03-11T00:12:22.170Z,86.33
2023-03-11T00:14:48.619Z,87.02
2023-03-11T00:17:15.083Z,87.55
2023-03-11T00:19:41.523Z,89.06
2023-03-11T00:22:08.331Z,89.66
2023-03-11T00:24:34.924Z,89.86
2023-03-11T00:27:01.406Z,89.37
2023-03-11T00:29:27.909Z,88.29
2023-03-11T00:31:54.700Z,88.84
2023-03-11T00:34:22.980Z,87.19
2023-03-11T00:36:51.778Z,86.11
2023-03-11T00:39:18.327Z,87.54
2023-03-11T00:41:44.848Z,87.79
2023-03-11T00:44:12.564Z,87.44
2023-03-11T00:46:41.280Z,86.47
2023-03-11T00:49:07.810Z,85.38
2023-03-11T00:51:34.781Z,86.48
2023-03-11T00:54:01.363Z,85.48
2023-03-11T00:56:27.994Z,86.29
2023-03-11T00:59:12.135Z,87.23
2023-03-11T01:01:38.869Z,86.92
2023-03-11T01:04:05.550Z,87.50
2023-03-11T01:06:44.524Z,86.89
2023-03-11T01:09:11.804Z,86.87
2023-03-11T01:11:38.262Z,87.98
2023-03-11T01:14:04.714Z,88.38
2023-03-11T01:16:31.257Z,87.87
2023-03-11T01:18:57.683Z,87.24
2023-03-11T01:21:24.216Z,88.17
2023-03-11T01:23:50.675Z,87.85
2023-03-11T01:26:17.152Z,86.94
2023-03-11T01:28:43.791Z,86.55
2023-03-11T01:31:10.860Z,87.35
2023-03-11T01:33:37.367Z,86.72
2023-03-11T01:36:04.203Z,86.55
2023-03-11T01:38:30.672Z,85.15
2023-03-11T01:40:57.149Z,85.91
2023-03-11T01:43:44.763Z,85.88
2023-03-11T01:46:36.003Z,84.30
2023-03-11T01:49:04.274Z,84.16
2023-03-11T01:51:39.017Z,84.29
2023-03-11T01:54:10.683Z,83.91
2023-03-11T01:56:39.216Z,83.39
2023-03-11T01:59:08.121Z,83.66
2023-03-11T02:01:38.565Z,83.03
2023-03-11T02:04:05.040Z,84.11
2023-03-11T02:06:32.545Z,84.41
2023-03-11T02:09:01.115Z,85.10
2023-03-11T02:11:30.657Z,84.79
2023-03-11T02:14:01.657Z,85.03
2023-03-11T02:16:28.253Z,84.71
2023-03-11T02:18:54.759Z,85.49
2023-03-11T02:21:23.769Z,85.34
2023-03-11T02:24:01.868Z,85.21
2023-03-11T02:26:41.214Z,84.81
2023-03-11T02:29:11.310Z,85.76
2023-03-11T02:31:42.892Z,84.59
2023-03-11T02:34:18.766Z,84.71
2023-03-11T02:36:45.646Z,84.16
2023-03-11T02:39:12.219Z,84.10
2023-03-11T02:41:41.693Z,84.46
2023-03-11T02:44:11.766Z,84.07
2023-03-11T02:46:41.377Z,84.75
2023-03-11T02:49:09.382Z,84.58
2023-03-11T02:51:35.790Z,85.23
2023-03-11T02:54:05.545Z,85.69
2023-03-11T02:56:32.583Z,84.94
2023-03-11T02:58:59.295Z,84.59
2023-03-11T03:01:25.907Z,84.88
2023-03-11T03:03:52.496Z,85.12
2023-03-11T03:06:19.001Z,84.49
2023-03-11T03:08:45.493Z,84.55
2023-03-11T03:11:11.997Z,84.32
2023-03-11T03:13:38.577Z,85.15
2023-03-11T03:16:05.386Z,83.52
2023-03-11T03:18:31.962Z,84.14
2023-03-11T03:20:58.526Z,84.38
2023-03-11T03:23:25.093Z,83.56
2023-03-11T03:25:51.861Z,84.05
2023-03-11T03:28:19.012Z,83.77
2023-03-11T03:30:45.702Z,82.48
2023-03-11T03:33:12.592Z,83.87
2023-03-11T03:35:44.822Z,84.07
2023-03-11T03:38:11.953Z,82.66
2023-03-11T03:40:38.801Z,83.60
2023-03-11T03:43:05.721Z,83.53
2023-03-11T03:45:32.223Z,82.43
2023-03-11T03:47:58.933Z,81.97
2023-03-11T03:50:25.411Z,82.68
2023-03-11T03:52:51.879Z,81.45
2023-03-11T03:55:18.428Z,81.04
2023-03-11T03:57:45.109Z,81.16
2023-03-11T04:00:12.029Z,81.40
2023-03-11T04:02:38.517Z,80.80
2023-03-11T04:05:05.548Z,81.07
2023-03-11T04:07:34.673Z,80.74
2023-03-11T04:10:01.182Z,81.07
2023-03-11T04:12:27.682Z,81.70
2023-03-11T04:14:54.174Z,82.06
2023-03-11T04:17:20.639Z,81.87
2023-03-11T04:19:47.047Z,82.26
2023-03-11T04:22:13.769Z,82.29
2023-03-11T04:24:40.257Z,81.86
2023-03-11T04:27:06.817Z,81.99
2023-03-11T04:29:33.236Z,82.38
2023-03-11T04:31:59.647Z,82.58
2023-03-11T04:34:26.099Z,83.17
2023-03-11T04:36:54.076Z,83.07
2023-03-11T04:39:21.034Z,82.91
2023-03-11T04:41:47.440Z,82.81
2023-03-11T04:44:13.942Z,82.87
2023-03-11T04:46:40.342Z,81.97
2023-03-11T04:49:06.855Z,82.17
2023-03-11T04:51:33.339Z,82.85
2023-03-11T04:53:59.956Z,83.21
2023-03-11T04:56:26.487Z,83.61
2023-03-11T04:58:52.898Z,83.43
2023-03-11T05:01:19.757Z,84.14
2023-03-11T05:03:46.379Z,82.62
2023-03-11T05:06:13.005Z,82.71
2023-03-11T05:08:40.524Z,83.33
2023-03-11T05:11:07.608Z,83.37
2023-03-11T05:13:34.110Z,83.63
2023-03-11T05:16:00.551Z,83.06
2023-03-11T05:18:27.037Z,82.97
2023-03-11T05:20:53.487Z,83.72
2023-03-11T05:23:19.935Z,83.98
2023-03-11T05:25:46.640Z,83.82
2023-03-11T05:28:13.068Z,84.13
2023-03-11T05:30:39.478Z,84.08
2023-03-11T05:33:05.957Z,84.10
2023-03-11T05:35:32.346Z,85.22
2023-03-11T05:37:58.738Z,85.01
2023-03-11T05:40:25.176Z,84.05
2023-03-11T05:42:52.013Z,84.23
2023-03-11T05:45:18.404Z,84.04
2023-03-11T05:47:45.110Z,84.14
2023-03-11T05:50:12.528Z,84.51
2023-03-11T05:52:38.994Z,83.92
2023-03-11T05:58:00.772Z,82.75
2023-03-11T06:00:29.471Z,83.08
2023-03-11T06:02:55.976Z,81.91
2023-03-11T06:05:22.437Z,81.94
2023-03-11T06:07:48.975Z,81.55
2023-03-11T06:10:15.502Z,81.34
2023-03-11T06:12:41.912Z,81.66
2023-03-11T06:15:09.170Z,81.92
2023-03-11T06:17:35.626Z,82.38
2023-03-11T06:20:02.137Z,81.90
2023-03-11T06:22:28.638Z,81.69
2023-03-11T06:24:55.099Z,81.76
2023-03-11T06:27:21.555Z,81.37
2023-03-11T06:29:52.253Z,80.74
2023-03-11T06:32:18.801Z,80.38
2023-03-11T06:34:45.288Z,79.37
2023-03-11T06:37:11.666Z,79.47
2023-03-11T06:39:38.110Z,79.74
2023-03-11T06:42:04.760Z,78.58
2023-03-11T06:44:31.162Z,78.13
2023-03-11T06:46:57.621Z,78.86
2023-03-11T06:49:24.109Z,79.34
2023-03-11T06:51:50.728Z,78.18
2023-03-11T06:54:17.265Z,77.73
2023-03-11T06:56:43.805Z,79.08
2023-03-11T06:59:10.593Z,77.61
2023-03-11T07:01:37.221Z,78.37
2023-03-11T07:04:03.882Z,78.49
2023-03-11T07:06:30.556Z,77.52
2023-03-11T07:08:57.134Z,77.93
2023-03-11T07:11:26.293Z,75.48
2023-03-11T07:13:54.277Z,68.43
2023-03-11T07:16:23.233Z,62.26
2023-03-11T07:18:50.593Z,56.62
2023-03-11T07:21:20.105Z,56.65
2023-03-11T07:23:49.176Z,54.20
2023-03-11T07:26:17.918Z,54.84
2023-03-11T07:28:47.988Z,50.76
2023-03-11T07:31:17.971Z,50.19
2023-03-11T07:33:45.510Z,50.26
2023-03-11T07:36:14.741Z,49.21
2023-03-11T07:38:41.942Z,48.83
2023-03-11T07:41:11.058Z,48.09
2023-03-11T07:43:37.923Z,47.21
2023-03-11T07:46:14.074Z,46.07
2023-03-11T07:48:40.840Z,46.58
2023-03-11T07:51:11.944Z,49.27
2023-03-11T07:53:40.538Z,52.29
2023-03-11T07:56:08.806Z,54.97
2023-03-11T07:58:35.655Z,57.11
2023-03-11T08:01:10.814Z,58.11
2023-03-11T08:03:38.282Z,60.43
2023-03-11T08:06:26.590Z,60.38
2023-03-11T08:08:53.439Z,60.96
2023-03-11T08:11:23.256Z,61.78
2023-03-11T08:13:50.634Z,63.00
2023-03-11T08:16:19.992Z,63.32
2023-03-11T08:18:47.528Z,65.36
2023-03-11T08:21:16.949Z,65.29
2023-03-11T08:23:44.033Z,65.77
2023-03-11T08:26:16.695Z,65.77
2023-03-11T08:28:43.977Z,66.92
2023-03-11T08:31:18.208Z,67.54
2023-03-11T08:33:47.212Z,67.50
2023-03-11T08:36:13.837Z,66.60
2023-03-11T08:38:40.461Z,67.80
2023-03-11T08:41:06.942Z,65.85
2023-03-11T08:43:33.750Z,64.13
2023-03-11T08:46:01.478Z,64.07
2023-03-11T08:48:28.801Z,61.31
2023-03-11T08:50:56.192Z,58.99
2023-03-11T08:53:23.405Z,59.17
2023-03-11T08:55:51.717Z,56.54
2023-03-11T08:58:19.289Z,58.27
2023-03-11T09:00:46.166Z,58.70
2023-03-11T09:03:13.496Z,57.30
2023-03-11T09:05:40.175Z,57.43
2023-03-11T09:08:06.979Z,58.19
2023-03-11T09:10:33.552Z,57.50
2023-03-11T09:12:59.984Z,54.44
2023-03-11T09:15:26.573Z,52.62
2023-03-11T09:17:53.921Z,50.55
2023-03-11T09:20:20.608Z,47.63
2023-03-11T09:22:47.437Z,46.41
2023-03-11T09:25:14.370Z,48.49
2023-03-11T09:27:41.401Z,48.46
2023-03-11T09:30:09.451Z,49.40
2023-03-11T09:32:35.930Z,50.46
2023-03-11T09:35:02.579Z,49.52
2023-03-11T09:37:30.247Z,49.72
2023-03-11T09:39:56.827Z,50.83
2023-03-11T09:42:46.256Z,51.57
2023-03-11T09:45:19.458Z,53.18
2023-03-11T09:48:09.263Z,54.30
2023-03-11T09:50:46.379Z,56.72
2023-03-11T09:53:18.894Z,56.14
2023-03-11T09:55:45.295Z,57.60
2023-03-11T09:58:17.002Z,56.75
2023-03-11T10:00:44.030Z,56.02
2023-03-11T10:03:25.771Z,54.55
2023-03-11T10:05:58.483Z,55.00
2023-03-11T10:08:33.250Z,54.30
2023-03-11T10:11:32.933Z,53.19
2023-03-11T10:14:27.453Z,49.65
2023-03-11T10:17:08.097Z,49.47
2023-03-11T10:19:54.717Z,48.43
2023-03-11T10:22:39.775Z,48.10
2023-03-11T10:25:24.340Z,46.01
2023-03-11T10:28:06.576Z,39.67
2023-03-11T10:30:58.244Z,40.70
2023-03-11T10:33:46.586Z,40.86
2023-03-11T10:36:19.683Z,43.13
2023-03-11T10:38:50.216Z,44.91
2023-03-11T10:41:44.318Z,44.04
2023-03-11T10:44:19.173Z,47.21
2023-03-11T10:46:45.612Z,46.47
2023-03-11T10:49:17.590Z,47.06
2023-03-11T10:51:50.462Z,48.53
2023-03-11T10:54:29.817Z,46.06
2023-03-11T10:57:03.880Z,45.01
2023-03-11T10:59:34.397Z,45.56
2023-03-11T11:02:20.017Z,45.53
2023-03-11T11:04:46.633Z,47.61
2023-03-11T11:07:29.890Z,47.58
2023-03-11T11:10:11.642Z,45.84
2023-03-11T11:12:50.325Z,44.31
2023-03-11T11:15:29.412Z,43.83
2023-03-11T11:17:58.970Z,41.76
2023-03-11T11:20:27.450Z,34.82
2023-03-11T11:22:59.237Z,35.97
2023-03-11T11:25:30.429Z,36.77
2023-03-11T11:28:00.587Z,36.40
2023-03-11T11:30:28.940Z,34.18
2023-03-11T11:32:55.792Z,31.65
2023-03-11T11:35:25.472Z,30.18
2023-03-11T11:37:55.683Z,32.07
2023-03-11T11:40:31.007Z,34.47
2023-03-11T11:43:03.554Z,36.17
2023-03-11T11:45:37.772Z,37.60
2023-03-11T11:48:20.247Z,39.93
2023-03-11T11:50:52.624Z,41.22
2023-03-11T11:53:51.265Z,42.48
2023-03-11T11:56:17.904Z,43.05
2023-03-11T11:58:44.406Z,45.33
2023-03-11T12:01:15.408Z,45.01
2023-03-11T12:04:05.181Z,46.18
2023-03-11T12:06:40.070Z,47.08
2023-03-11T12:09:24.143Z,46.63
2023-03-11T12:12:01.342Z,48.07
2023-03-11T12:14:43.180Z,48.16
2023-03-11T12:17:13.882Z,46.92
2023-03-11T12:19:58.197Z,44.77
2023-03-11T12:22:51.068Z,43.88
2023-03-11T12:25:30.144Z,42.47
2023-03-11T12:28:14.770Z,40.70
2023-03-11T12:30:46.319Z,36.91
2023-03-11T12:33:18.837Z,36.26
2023-03-11T12:35:58.157Z,38.38
2023-03-11T12:38:27.646Z,38.51
2023-03-11T12:41:23.040Z,37.75
2023-03-11T12:43:52.425Z,36.58
2023-03-11T12:46:19.454Z,30.07
2023-03-11T12:49:07.737Z,30.31
2023-03-11T12:51:39.185Z,30.11
2023-03-11T12:54:32.187Z,33.35
2023-03-11T12:57:03.524Z,37.74
2023-03-11T12:59:57.393Z,38.36
2023-03-11T13:02:47.785Z,38.53
2023-03-11T13:05:33.115Z,36.99
2023-03-11T13:08:21.778Z,37.54
2023-03-11T13:10:56.326Z,39.71
2023-03-11T13:13:39.466Z,41.23
2023-03-11T13:16:14.922Z,42.02
2023-03-11T13:18:46.516Z,39.10
2023-03-11T13:21:28.388Z,39.09
2023-03-11T13:24:21.410Z,41.25
2023-03-11T13:27:00.575Z,39.10
2023-03-11T13:29:31.348Z,40.85
2023-03-11T13:32:28.233Z,41.37
2023-03-11T13:35:10.216Z,40.55
2023-03-11T13:37:50.986Z,40.79
2023-03-11T13:40:36.486Z,39.40
2023-03-11T13:43:05.654Z,41.16
2023-03-11T13:45:35.638Z,40.62
2023-03-11T13:48:16.481Z,40.97
2023-03-11T13:50:51.051Z,42.36
2023-03-11T13:53:31.079Z,43.60
2023-03-11T13:55:57.738Z,43.17
2023-03-11T13:58:26.872Z,42.83
2023-03-11T14:00:58.804Z,43.40
2023-03-11T14:03:28.295Z,44.02
2023-03-11T14:06:08.088Z,44.77
2023-03-11T14:08:38.709Z,43.06
2023-03-11T14:11:08.233Z,43.68
2023-03-11T14:13:49.799Z,43.23
2023-03-11T14:16:18.851Z,42.61
2023-03-11T14:18:48.411Z,40.86
2023-03-11T14:21:18.290Z,42.94
2023-03-11T14:23:48.234Z,41.67
2023-03-11T14:26:20.322Z,40.89
2023-03-11T14:28:51.009Z,41.05
2023-03-11T14:31:38.696Z,40.72
2023-03-11T14:34:15.247Z,41.14
2023-03-11T14:36:42.329Z,40.30
2023-03-11T14:39:30.041Z,39.53
2023-03-11T14:42:08.138Z,40.36
2023-03-11T14:44:40.980Z,40.50
2023-03-11T14:47:26.947Z,39.85
2023-03-11T14:49:54.581Z,38.78
2023-03-11T14:52:32.601Z,40.46
2023-03-11T14:55:00.794Z,40.81
2023-03-11T14:57:39.916Z,39.55
2023-03-11T15:00:15.900Z,40.75
2023-03-11T15:03:00.970Z,41.26
2023-03-11T15:05:46.159Z,42.37
2023-03-11T15:08:12.898Z,43.19
2023-03-11T15:10:39.526Z,42.50
2023-03-11T15:13:14.859Z,43.84
2023-03-11T15:15:41.981Z,43.01
2023-03-11T15:18:22.342Z,43.37
2023-03-11T15:21:05.775Z,45.98
2023-03-11T15:23:35.130Z,44.65
2023-03-11T15:26:01.938Z,42.36
2023-03-11T15:28:33.615Z,42.97
2023-03-11T15:31:31.334Z,42.72
2023-03-11T15:34:19.279Z,42.34
2023-03-11T15:36:48.487Z,42.71
2023-03-11T15:39:31.224Z,46.01
2023-03-11T15:42:02.290Z,53.02
2023-03-11T15:44:42.282Z,45.19
2023-03-11T15:47:15.063Z,51.57
2023-03-11T15:49:42.292Z,46.51
2023-03-11T15:52:09.290Z,47.10
2023-03-11T15:54:36.293Z,44.97
2023-03-11T15:57:06.903Z,43.14
2023-03-11T15:59:34.765Z,43.57
2023-03-11T16:02:01.261Z,43.40
2023-03-11T16:04:27.819Z,43.44
2023-03-11T16:07:07.139Z,43.79
2023-03-11T16:09:34.534Z,44.40
2023-03-11T16:12:02.047Z,44.55
2023-03-11T16:14:28.551Z,44.78
2023-03-11T16:16:55.061Z,45.52
2023-03-11T16:19:21.539Z,45.86
2023-03-11T16:21:50.184Z,48.41
2023-03-11T16:24:20.903Z,54.59
2023-03-11T16:26:47.577Z,55.18
2023-03-11T16:29:19.484Z,55.01
2023-03-11T16:31:46.645Z,57.91
2023-03-11T16:34:13.242Z,55.14
2023-03-11T16:36:42.225Z,52.62
2023-03-11T16:39:09.291Z,46.79
2023-03-11T16:41:45.304Z,48.90
2023-03-11T16:44:11.963Z,48.01
2023-03-11T16:46:38.765Z,46.36
2023-03-11T16:49:05.706Z,47.98
2023-03-11T16:51:32.536Z,47.25
2023-03-11T16:53:59.283Z,48.37
2023-03-11T16:56:25.816Z,49.41
2023-03-11T16:58:52.261Z,47.97
2023-03-11T17:01:19.204Z,48.53
2023-03-11T17:03:48.537Z,48.02
2023-03-11T17:06:15.722Z,48.30
2023-03-11T17:08:42.352Z,49.45
2023-03-11T17:11:16.744Z,48.72
2023-03-11T17:13:43.741Z,49.09
2023-03-11T17:16:10.241Z,49.18
2023-03-11T17:18:36.742Z,49.57
2023-03-11T17:21:09.166Z,50.58
2023-03-11T17:23:35.702Z,51.31
2023-03-11T17:26:02.604Z,52.31
2023-03-11T17:28:29.582Z,53.11
2023-03-11T17:30:56.056Z,53.21
2023-03-11T17:33:22.460Z,54.81
2023-03-11T17:35:48.873Z,55.83
2023-03-11T17:38:16.601Z,56.88
2023-03-11T17:40:43.310Z,56.81
2023-03-11T17:43:09.862Z,58.60
2023-03-11T17:45:38.616Z,61.77
2023-03-11T17:48:05.208Z,62.05
2023-03-11T17:50:31.620Z,61.96
2023-03-11T17:52:58.210Z,62.25
2023-03-11T17:55:24.846Z,63.44
2023-03-11T17:57:52.389Z,64.48
2023-03-11T18:00:19.263Z,65.43
2023-03-11T18:02:45.731Z,65.97
2023-03-11T18:05:12.209Z,64.99
2023-03-11T18:07:41.603Z,65.06
2023-03-11T18:10:09.238Z,65.60
2023-03-11T18:12:36.075Z,65.37
2023-03-11T18:15:06.024Z,66.47
2023-03-11T18:17:34.888Z,66.94
2023-03-11T18:20:01.729Z,68.13
2023-03-11T18:22:28.193Z,68.34
2023-03-11T18:24:54.807Z,69.19
2023-03-11T18:27:21.274Z,70.53
2023-03-11T18:29:47.707Z,70.90
2023-03-11T18:32:14.227Z,70.72
2023-03-11T18:34:41.677Z,70.49
2023-03-11T18:37:08.457Z,71.62
2023-03-11T18:39:35.314Z,71.22
2023-03-11T18:42:02.884Z,70.81
2023-03-11T18:44:29.375Z,71.40
2023-03-11T18:46:55.910Z,72.06
2023-03-11T18:49:22.340Z,73.60
2023-03-11T18:51:48.777Z,73.11
2023-03-11T18:54:15.209Z,73.50
2023-03-11T18:56:41.695Z,73.76
2023-03-11T18:59:12.050Z,74.33
2023-03-11T19:01:38.702Z,73.86
2023-03-11T19:04:05.327Z,74.70
2023-03-11T19:06:31.885Z,74.93
2023-03-11T19:08:58.526Z,75.40
2023-03-11T19:11:25.254Z,75.40
2023-03-11T19:13:52.780Z,76.02
2023-03-11T19:16:23.150Z,75.95
2023-03-11T19:18:50.333Z,75.78
2023-03-11T19:21:17.459Z,75.70
2023-03-11T19:23:44.743Z,75.62
2023-03-11T19:26:11.879Z,75.22
2023-03-11T19:28:38.473Z,75.60
2023-03-11T19:31:05.669Z,75.69
2023-03-11T19:33:32.552Z,75.60
2023-03-11T19:36:01.064Z,75.55
2023-03-11T19:38:28.818Z,76.02
2023-03-11T19:41:07.095Z,76.00
2023-03-11T19:43:35.612Z,77.09
2023-03-11T19:46:03.741Z,77.08
2023-03-11T19:48:30.606Z,77.53
2023-03-11T19:50:58.551Z,76.77
2023-03-11T19:53:26.437Z,77.64
2023-03-11T19:55:55.623Z,77.42
2023-03-11T19:58:23.864Z,77.40
2023-03-11T20:00:51.418Z,77.73
2023-03-11T20:03:19.518Z,78.05
2023-03-11T20:05:47.288Z,78.12
2023-03-11T20:08:16.864Z,78.17
2023-03-11T20:10:46.361Z,78.45
2023-03-11T20:13:14.771Z,78.42
2023-03-11T20:15:41.442Z,78.57
2023-03-11T20:18:08.075Z,78.80
2023-03-11T20:20:37.447Z,78.76
2023-03-11T20:23:04.059Z,78.96
2023-03-11T20:25:34.754Z,79.13
2023-03-11T20:28:01.558Z,79.61
2023-03-11T20:30:28.721Z,80.13
2023-03-11T20:32:55.538Z,80.21
2023-03-11T20:35:22.799Z,79.99
2023-03-11T20:37:49.306Z,80.68
2023-03-11T20:40:17.104Z,81.44
2023-03-11T20:42:46.793Z,82.25
2023-03-11T20:45:21.622Z,82.18
2023-03-11T20:47:49.919Z,81.77
2023-03-11T20:50:16.802Z,81.86
2023-03-11T20:52:43.478Z,81.11
2023-03-11T20:55:10.836Z,81.85
2023-03-11T20:57:38.676Z,81.65
2023-03-11T21:00:11.422Z,81.87
2023-03-11T21:02:44.700Z,81.77
2023-03-11T21:05:12.510Z,81.96
2023-03-11T21:07:39.696Z,81.98
2023-03-11T21:10:09.808Z,82.55
2023-03-11T21:12:36.366Z,82.97
2023-03-11T21:15:07.216Z,83.54
2023-03-11T21:17:37.117Z,82.65
2023-03-11T21:20:09.215Z,82.30
2023-03-11T21:22:36.167Z,82.82
2023-03-11T21:25:08.506Z,83.47
2023-03-11T21:27:35.275Z,84.29
2023-03-11T21:30:05.080Z,83.99
2023-03-11T21:32:31.933Z,84.19
2023-03-11T21:34:59.861Z,84.10
2023-03-11T21:37:27.834Z,83.27
2023-03-11T21:39:57.820Z,84.10
2023-03-11T21:45:08.358Z,84.80
2023-03-11T21:47:37.914Z,84.84
2023-03-11T21:50:05.338Z,84.52
2023-03-11T21:52:31.795Z,84.32
2023-03-11T21:55:02.992Z,84.05
2023-03-11T21:57:29.567Z,84.73
2023-03-11T22:00:07.644Z,85.48
2023-03-11T22:02:40.134Z,86.18
2023-03-11T22:05:14.130Z,85.82
2023-03-11T22:07:40.637Z,85.52
2023-03-11T22:10:08.326Z,85.80
2023-03-11T22:12:34.822Z,85.52
2023-03-11T22:15:04.067Z,85.77
2023-03-11T22:17:30.674Z,86.20
2023-03-11T22:19:59.879Z,86.34
2023-03-11T22:22:26.492Z,86.03
2023-03-11T22:24:55.409Z,85.86
2023-03-11T22:27:21.873Z,85.06
2023-03-11T22:29:51.466Z,85.35
2023-03-11T22:32:17.993Z,85.82
2023-03-11T22:34:44.632Z,85.84
2023-03-11T22:37:16.653Z,85.46
2023-03-11T22:39:45.601Z,85.29
2023-03-11T22:42:12.246Z,85.89
2023-03-11T22:44:41.847Z,85.68
2023-03-11T22:47:10.386Z,86.23
2023-03-11T22:49:38.453Z,86.12
2023-03-11T22:52:05.232Z,86.18
2023-03-11T22:54:31.757Z,86.58
2023-03-11T22:56:58.241Z,86.68
2023-03-11T22:59:30.724Z,85.92
2023-03-11T23:01:57.603Z,86.03
2023-03-11T23:04:26.696Z,85.94
2023-03-11T23:06:57.983Z,86.36
2023-03-11T23:09:24.451Z,86.30
2023-03-11T23:11:52.635Z,86.39
2023-03-11T23:14:22.003Z,86.15
2023-03-11T23:16:52.185Z,86.28
2023-03-11T23:19:18.677Z,86.53
2023-03-11T23:21:45.149Z,86.13
2023-03-11T23:24:11.703Z,86.15
2023-03-11T23:26:38.235Z,86.58
2023-03-11T23:29:05.181Z,86.17
2023-03-11T23:31:31.942Z,86.67
2023-03-11T23:33:58.845Z,86.86
2023-03-11T23:36:30.823Z,87.04
2023-03-11T23:38:57.658Z,87.18
2023-03-11T23:41:24.141Z,87.29
2023-03-11T23:43:51.025Z,87.20
2023-03-11T23:46:17.702Z,87.37
2023-03-11T23:48:44.255Z,87.37
2023-03-11T23:51:11.038Z,87.64
2023-03-11T23:53:40.690Z,87.29
2023-03-11T23:56:18.851Z,87.30
2023-03-11T23:58:46.479Z,87.08
